Terminal Aerodrome Forecast
Issued by NWS Sioux Falls, SD

Home | Current Version | Previous Version | Text Only | Print | Product List | Glossary Off
Versions: 1 2 3 4 5 6 7 8 9 10 11 12 13 14 15 16 17

000
FTUS43 KFSD 182335
TAFSUX
TAF
KSUX 182335Z 1900/1924 19006KT P6SM BKN200
     FM190200 33008KT P6SM BKN200
     FM190600 36014G22KT P6SM BKN150
     FM190900 01016G26KT 2SM -FZDZ OVC025
     FM191100 01017G27KT 2SM -FZDZ OVC015
     FM191500 36017G27KT P6SM -FZDZ OVC015
     FM191800 01015G25KT P6SM OVC014=

USA.gov is the U.S. government's official web portal to all federal, state and local government web resources and services.